DLH447 KDEN-EDDF
Flight info
| Callsign | DLH447 |
|---|---|
| Flight time | N/A |
| Altitude | 35000 |
| Route | CHUWY1 CHUWY DCT KP87C DCT 4930N09000W 5430N08000W 5830N07000W/M085F370 DCT MAXAR DCT 6230N05000W 6230N04000W 6130N03000W 60N020W DCT ETILO/N0487F370 DCT EVNAL/N0483F390 DCT ERKIT N110 DOLAS DCT NAVPI DCT NOLRU DCT DIXAT DIXAT1C |
| Aircraft | A359/H-SDE2E3GHIJ3J4J5LM1ORWXY/LB1D1 |
Departure
| Time | 2026-05-04 23:33 |
|---|---|
| Airport | Denver International Airport (KDEN) |
Arrival
| Time | N/A |
|---|---|
| Airport | Frankfurt Main Airport (EDDF) |
| Time | Latitude | Longitude | Altitude | Speed | Heading |
|---|---|---|---|---|---|
| 2026-05-04 23:02 | 39.85438 | -104.67233 | 5384 ft | 0 kts | 186° |
| 2026-05-04 23:02 | 39.85428 | -104.67224 | 5387 ft | 0 kts | 191° |
| 2026-05-04 23:04 | 39.85428 | -104.67229 | 5383 ft | 0 kts | 187° |
| 2026-05-04 23:04 | 39.85483 | -104.67220 | 5383 ft | 0 kts | 187° |
| 2026-05-04 23:04 | 39.85428 | -104.67229 | 5383 ft | 0 kts | 187° |
| 2026-05-04 23:06 | 39.85432 | -104.67229 | 5386 ft | 0 kts | 187° |
| 2026-05-04 23:09 | 39.85428 | -104.67229 | 5383 ft | 0 kts | 187° |
| 2026-05-04 23:11 | 39.85428 | -104.67224 | 5384 ft | 0 kts | 191° |
| 2026-05-04 23:11 | 39.85431 | -104.67494 | 5382 ft | 0 kts | 185° |
| 2026-05-04 23:19 | 39.85432 | -104.67494 | 5382 ft | 2 kts | 185° |
| 2026-05-04 23:20 | 39.85457 | -104.67491 | 5386 ft | 4 kts | 187° |
| 2026-05-04 23:20 | 39.85483 | -104.67485 | 5387 ft | 4 kts | 192° |
| 2026-05-04 23:20 | 39.85509 | -104.67476 | 5385 ft | 4 kts | 207° |
| 2026-05-04 23:20 | 39.85526 | -104.67457 | 5388 ft | 3 kts | 264° |
| 2026-05-04 23:21 | 39.85528 | -104.67452 | 5381 ft | 0 kts | 271° |
| 2026-05-04 23:26 | 39.85528 | -104.67454 | 5389 ft | 2 kts | 271° |
| 2026-05-04 23:26 | 39.85528 | -104.67518 | 5389 ft | 10 kts | 270° |
| 2026-05-04 23:26 | 39.85529 | -104.67589 | 5389 ft | 6 kts | 271° |
| 2026-05-04 23:27 | 39.85529 | -104.67638 | 5389 ft | 5 kts | 271° |
| 2026-05-04 23:27 | 39.85530 | -104.67677 | 5385 ft | 3 kts | 271° |
| 2026-05-04 23:27 | 39.85530 | -104.67738 | 5383 ft | 14 kts | 270° |
| 2026-05-04 23:27 | 39.85530 | -104.67930 | 5387 ft | 25 kts | 274° |
| 2026-05-04 23:28 | 39.85530 | -104.68119 | 5382 ft | 18 kts | 270° |
| 2026-05-04 23:28 | 39.85511 | -104.68192 | 5384 ft | 3 kts | 199° |
| 2026-05-04 23:28 | 39.85465 | -104.68199 | 5387 ft | 11 kts | 187° |
| 2026-05-04 23:28 | 39.85377 | -104.68202 | 5385 ft | 15 kts | 180° |
| 2026-05-04 23:29 | 39.85313 | -104.68270 | 5383 ft | 13 kts | 255° |
| 2026-05-04 23:29 | 39.85308 | -104.68393 | 5386 ft | 14 kts | 271° |
| 2026-05-04 23:29 | 39.85268 | -104.68508 | 5385 ft | 17 kts | 205° |
| 2026-05-04 23:29 | 39.85202 | -104.68617 | 5375 ft | 18 kts | 262° |
| 2026-05-04 23:30 | 39.85200 | -104.68821 | 5366 ft | 25 kts | 269° |
| 2026-05-04 23:30 | 39.85198 | -104.69039 | 5356 ft | 23 kts | 269° |
| 2026-05-04 23:30 | 39.85197 | -104.69256 | 5351 ft | 24 kts | 270° |
| 2026-05-04 23:30 | 39.85200 | -104.69469 | 5346 ft | 10 kts | 272° |
| 2026-05-04 23:31 | 39.85202 | -104.69524 | 5347 ft | 6 kts | 271° |
| 2026-05-04 23:31 | 39.85202 | -104.69598 | 5347 ft | 8 kts | 270° |
| 2026-05-04 23:31 | 39.85218 | -104.69655 | 5346 ft | 6 kts | 321° |
| 2026-05-04 23:31 | 39.85262 | -104.69660 | 5344 ft | 6 kts | 2° |
| 2026-05-04 23:32 | 39.85308 | -104.69658 | 5343 ft | 9 kts | 1° |
| 2026-05-04 23:32 | 39.85496 | -104.69656 | 5344 ft | 54 kts | 0° |
| 2026-05-04 23:32 | 39.86070 | -104.69648 | 5346 ft | 110 kts | 0° |
| 2026-05-04 23:32 | 39.87008 | -104.69637 | 5344 ft | 159 kts | 0° |
| 2026-05-04 23:33 | 39.88219 | -104.69613 | 5567 ft | 182 kts | 359° |
| 2026-05-04 23:33 | 39.89478 | -104.69643 | 6353 ft | 179 kts | 359° |
| 2026-05-04 23:33 | 39.90703 | -104.69661 | 7004 ft | 174 kts | 360° |
| 2026-05-04 23:33 | 39.91955 | -104.69631 | 7187 ft | 183 kts | 0° |
| 2026-05-04 23:34 | 39.93246 | -104.69588 | 7340 ft | 194 kts | 1° |
| 2026-05-04 23:34 | 39.94641 | -104.69542 | 7518 ft | 207 kts | 0° |
| 2026-05-04 23:34 | 39.96136 | -104.69497 | 7691 ft | 222 kts | 0° |
| 2026-05-04 23:34 | 39.97736 | -104.69453 | 7833 ft | 239 kts | 1° |
| 2026-05-04 23:35 | 39.99466 | -104.69406 | 7973 ft | 257 kts | 1° |
| 2026-05-04 23:35 | 40.01310 | -104.69356 | 8169 ft | 273 kts | 1° |
| 2026-05-04 23:35 | 40.03247 | -104.69186 | 8528 ft | 283 kts | 10° |
| 2026-05-04 23:35 | 40.05088 | -104.68274 | 9060 ft | 286 kts | 29° |
| 2026-05-04 23:36 | 40.06789 | -104.66912 | 9642 ft | 288 kts | 33° |
| 2026-05-04 23:36 | 40.08478 | -104.65469 | 10065 ft | 293 kts | 33° |
| 2026-05-04 23:36 | 40.10224 | -104.63974 | 10336 ft | 307 kts | 33° |
| 2026-05-04 23:36 | 40.11432 | -104.62947 | 10488 ft | 317 kts | 33° |
| 2026-05-04 23:37 | 40.13324 | -104.61345 | 10743 ft | 331 kts | 33° |
| 2026-05-04 23:37 | 40.15297 | -104.59680 | 10987 ft | 344 kts | 33° |
| 2026-05-04 23:37 | 40.18032 | -104.57374 | 11329 ft | 361 kts | 33° |
| 2026-05-04 23:37 | 40.19476 | -104.56157 | 11484 ft | 369 kts | 33° |
| 2026-05-04 23:38 | 40.21641 | -104.54332 | 11719 ft | 380 kts | 32° |
| 2026-05-04 23:38 | 40.23898 | -104.52428 | 11978 ft | 390 kts | 32° |
| 2026-05-04 23:38 | 40.26197 | -104.50487 | 12352 ft | 396 kts | 32° |
| 2026-05-04 23:38 | 40.28528 | -104.48518 | 12750 ft | 401 kts | 32° |
| 2026-05-04 23:39 | 40.30885 | -104.46525 | 13194 ft | 405 kts | 32° |
| 2026-05-04 23:39 | 40.33267 | -104.44510 | 13629 ft | 408 kts | 32° |
| 2026-05-04 23:39 | 40.35671 | -104.42474 | 14010 ft | 412 kts | 32° |
| 2026-05-04 23:39 | 40.38090 | -104.40423 | 14412 ft | 416 kts | 32° |
| 2026-05-04 23:40 | 40.40524 | -104.38358 | 14840 ft | 418 kts | 32° |
| 2026-05-04 23:40 | 40.42980 | -104.36274 | 15244 ft | 421 kts | 32° |
| 2026-05-04 23:40 | 40.45444 | -104.34179 | 15659 ft | 424 kts | 31° |
| 2026-05-04 23:40 | 40.47922 | -104.32071 | 16150 ft | 425 kts | 30° |
| 2026-05-04 23:41 | 40.50413 | -104.29950 | 16563 ft | 428 kts | 30° |
| 2026-05-04 23:41 | 40.52923 | -104.27811 | 16968 ft | 432 kts | 30° |
| 2026-05-04 23:41 | 40.55427 | -104.25669 | 17392 ft | 435 kts | 31° |
| 2026-05-04 23:41 | 40.57860 | -104.23257 | 17801 ft | 441 kts | 39° |
| 2026-05-04 23:42 | 40.60061 | -104.20409 | 18174 ft | 446 kts | 44° |
| 2026-05-04 23:42 | 40.62178 | -104.17410 | 18565 ft | 448 kts | 45° |
| 2026-05-04 23:42 | 40.64292 | -104.14381 | 18914 ft | 451 kts | 45° |
| 2026-05-04 23:42 | 40.66418 | -104.11334 | 19323 ft | 454 kts | 45° |
| 2026-05-04 23:43 | 40.68566 | -104.08257 | 19693 ft | 457 kts | 45° |
| 2026-05-04 23:43 | 40.70726 | -104.05164 | 20041 ft | 460 kts | 44° |
| 2026-05-04 23:43 | 40.72901 | -104.02048 | 20423 ft | 463 kts | 44° |
| 2026-05-04 23:43 | 40.75093 | -103.98907 | 20839 ft | 466 kts | 44° |
| 2026-05-04 23:44 | 40.77297 | -103.95745 | 21243 ft | 469 kts | 44° |
| 2026-05-04 23:44 | 40.79482 | -103.92608 | 21592 ft | 472 kts | 44° |
| 2026-05-04 23:44 | 40.81714 | -103.89400 | 21989 ft | 475 kts | 44° |
| 2026-05-04 23:44 | 40.83957 | -103.86171 | 22381 ft | 478 kts | 44° |
| 2026-05-04 23:45 | 40.86214 | -103.82921 | 22805 ft | 481 kts | 44° |
| 2026-05-04 23:45 | 40.88487 | -103.79643 | 23200 ft | 484 kts | 44° |
| 2026-05-04 23:45 | 40.90769 | -103.76350 | 23530 ft | 487 kts | 44° |
| 2026-05-04 23:45 | 40.93068 | -103.73027 | 23856 ft | 490 kts | 44° |
| 2026-05-04 23:46 | 40.95379 | -103.69684 | 24191 ft | 493 kts | 44° |
| 2026-05-04 23:46 | 40.97706 | -103.66314 | 24462 ft | 499 kts | 44° |
| 2026-05-04 23:46 | 41.00058 | -103.62905 | 24745 ft | 503 kts | 44° |
| 2026-05-04 23:46 | 41.02389 | -103.59520 | 25090 ft | 505 kts | 44° |
| 2026-05-04 23:47 | 41.04756 | -103.56079 | 25423 ft | 507 kts | 44° |
| 2026-05-04 23:47 | 41.07144 | -103.52605 | 25748 ft | 510 kts | 44° |
| 2026-05-04 23:47 | 41.09544 | -103.49107 | 26064 ft | 513 kts | 44° |
| 2026-05-04 23:47 | 41.11949 | -103.45599 | 26431 ft | 514 kts | 44° |
| 2026-05-04 23:48 | 41.14358 | -103.42081 | 26742 ft | 516 kts | 44° |
| 2026-05-04 23:48 | 41.16780 | -103.38540 | 27017 ft | 519 kts | 44° |
| 2026-05-04 23:48 | 41.19219 | -103.34972 | 27299 ft | 522 kts | 44° |
| 2026-05-04 23:48 | 41.21635 | -103.31431 | 27601 ft | 524 kts | 44° |
| 2026-05-04 23:49 | 41.24097 | -103.27824 | 27748 ft | 529 kts | 44° |
| 2026-05-04 23:49 | 41.26573 | -103.24189 | 27994 ft | 532 kts | 44° |
| 2026-05-04 23:49 | 41.29059 | -103.20530 | 28279 ft | 534 kts | 44° |
| 2026-05-04 23:49 | 41.31559 | -103.16849 | 28544 ft | 536 kts | 44° |
| 2026-05-04 23:50 | 41.34067 | -103.13151 | 28802 ft | 538 kts | 45° |
| 2026-05-04 23:50 | 41.36542 | -103.09497 | 29208 ft | 537 kts | 44° |
| 2026-05-04 23:50 | 41.39035 | -103.05811 | 29604 ft | 536 kts | 44° |
| 2026-05-04 23:50 | 41.41537 | -103.02108 | 29921 ft | 536 kts | 44° |
| 2026-05-04 23:51 | 41.44036 | -102.98407 | 30187 ft | 536 kts | 44° |
| 2026-05-04 23:51 | 41.46534 | -102.94701 | 30498 ft | 537 kts | 44° |
| 2026-05-04 23:51 | 41.49026 | -102.91000 | 30844 ft | 534 kts | 44° |
| 2026-05-04 23:51 | 41.51503 | -102.87317 | 31208 ft | 532 kts | 43° |
| 2026-05-04 23:52 | 41.53970 | -102.83640 | 31474 ft | 532 kts | 44° |
| 2026-05-04 23:52 | 41.56432 | -102.79935 | 31730 ft | 532 kts | 44° |
| 2026-05-04 23:52 | 41.58884 | -102.76225 | 32033 ft | 531 kts | 44° |
| 2026-05-04 23:52 | 41.61303 | -102.72557 | 32214 ft | 532 kts | 44° |
| 2026-05-04 23:53 | 41.63753 | -102.68839 | 32436 ft | 532 kts | 44° |
| 2026-05-04 23:53 | 41.66204 | -102.65119 | 32710 ft | 531 kts | 44° |
| 2026-05-04 23:53 | 41.68642 | -102.61417 | 32983 ft | 530 kts | 44° |
| 2026-05-04 23:53 | 41.71081 | -102.57710 | 33224 ft | 530 kts | 43° |
| 2026-05-04 23:54 | 41.73516 | -102.54008 | 33560 ft | 527 kts | 44° |
| 2026-05-04 23:54 | 41.75926 | -102.50335 | 33915 ft | 524 kts | 44° |
| 2026-05-04 23:54 | 41.78332 | -102.46669 | 34051 ft | 524 kts | 44° |
| 2026-05-04 23:54 | 41.80714 | -102.43038 | 34128 ft | 526 kts | 43° |
| 2026-05-04 23:55 | 41.83164 | -102.39298 | 34268 ft | 527 kts | 43° |
| 2026-05-04 23:55 | 41.85556 | -102.35641 | 34417 ft | 527 kts | 43° |
| 2026-05-04 23:55 | 41.90398 | -102.28221 | 34638 ft | 528 kts | 43° |
| 2026-05-04 23:56 | 41.92818 | -102.24505 | 34748 ft | 529 kts | 43° |
| 2026-05-04 23:56 | 41.97675 | -102.17034 | 34889 ft | 533 kts | 43° |
| 2026-05-04 23:57 | 42.02560 | -102.09500 | 34875 ft | 534 kts | 43° |
| 2026-05-04 23:57 | 42.07399 | -102.02011 | 34891 ft | 533 kts | 43° |
| 2026-05-04 23:58 | 42.12261 | -101.94472 | 34883 ft | 533 kts | 43° |
| 2026-05-04 23:58 | 42.17128 | -101.86908 | 34889 ft | 533 kts | 43° |
| 2026-05-04 23:59 | 42.21986 | -101.79339 | 34889 ft | 533 kts | 43° |
| 2026-05-04 23:59 | 42.26847 | -101.71747 | 34891 ft | 534 kts | 43° |
| 2026-05-05 00:00 | 42.31668 | -101.64196 | 34898 ft | 534 kts | 43° |
| 2026-05-05 00:00 | 42.36515 | -101.56584 | 34891 ft | 534 kts | 43° |
| 2026-05-05 00:01 | 42.41361 | -101.48955 | 34891 ft | 534 kts | 43° |
| 2026-05-05 00:01 | 42.46197 | -101.41322 | 34899 ft | 534 kts | 43° |
| 2026-05-05 00:02 | 42.51004 | -101.33715 | 34895 ft | 534 kts | 43° |
| 2026-05-05 00:02 | 42.55839 | -101.26044 | 34899 ft | 534 kts | 43° |
| 2026-05-05 00:03 | 42.60666 | -101.18365 | 34898 ft | 534 kts | 43° |
| 2026-05-05 00:03 | 42.65481 | -101.10684 | 34897 ft | 534 kts | 43° |
| 2026-05-05 00:04 | 42.70268 | -101.03030 | 34930 ft | 534 kts | 43° |
| 2026-05-05 00:04 | 42.75090 | -100.95299 | 34897 ft | 536 kts | 43° |
| 2026-05-05 00:05 | 42.79910 | -100.87552 | 34894 ft | 536 kts | 43° |
| 2026-05-05 00:05 | 42.84726 | -100.79787 | 34898 ft | 536 kts | 43° |
| 2026-05-05 00:06 | 42.89537 | -100.72012 | 34899 ft | 536 kts | 44° |
| 2026-05-05 00:06 | 42.94319 | -100.64265 | 34915 ft | 536 kts | 43° |
| 2026-05-05 00:07 | 42.99130 | -100.56450 | 34918 ft | 538 kts | 43° |
| 2026-05-05 00:07 | 43.03944 | -100.48608 | 34899 ft | 539 kts | 44° |
| 2026-05-05 00:08 | 43.08735 | -100.40783 | 34899 ft | 539 kts | 44° |
| 2026-05-05 00:08 | 43.13548 | -100.32899 | 34898 ft | 539 kts | 44° |
| 2026-05-05 00:09 | 43.18353 | -100.25009 | 34903 ft | 539 kts | 44° |
| 2026-05-05 00:09 | 43.23164 | -100.17086 | 34898 ft | 540 kts | 44° |
| 2026-05-05 00:10 | 43.27936 | -100.09207 | 34893 ft | 540 kts | 44° |
| 2026-05-05 00:10 | 43.32742 | -100.01249 | 34889 ft | 540 kts | 44° |
| 2026-05-05 00:11 | 43.37541 | -99.93284 | 34889 ft | 540 kts | 44° |
| 2026-05-05 00:11 | 43.42332 | -99.85307 | 34901 ft | 541 kts | 44° |
| 2026-05-05 00:12 | 43.47121 | -99.77314 | 34895 ft | 542 kts | 44° |
| 2026-05-05 00:12 | 43.51887 | -99.69338 | 34883 ft | 542 kts | 44° |